Time;durP1;ratioP1;P1;durP2;ratioP2;P2;SDS_P1;SDS_P2;PMS_P1;PMS_P2;Temp;Humidity;BMP_temperature;BMP_pressure;BME280_temperature;BME280_humidity;BME280_pressure;Samples;Min_cycle;Max_cycle;Signal;HPM_P1;HPM_P2
2023/08/02 00:02:11;;;;;;;360.20;345.58;;;12.90;91.80;;;;;;5111740;28;20024;-73
2023/08/02 00:04:37;;;;;;;358.33;342.45;;;12.90;92.10;;;;;;5105800;28;20054;-70
2023/08/02 00:07:03;;;;;;;335.90;322.98;;;12.80;92.10;;;;;;5106552;28;20032;-71
2023/08/02 00:09:29;;;;;;;376.30;360.55;;;12.80;92.20;;;;;;5112868;28;20390;-71
2023/08/02 00:11:56;;;;;;;372.77;357.17;;;12.80;92.30;;;;;;5089765;28;20020;-71
2023/08/02 00:14:21;;;;;;;360.55;346.17;;;12.80;92.20;;;;;;5104511;28;20023;-70
2023/08/02 00:16:47;;;;;;;336.23;323.00;;;12.80;92.20;;;;;;5110616;28;20030;-71
2023/08/02 00:19:13;;;;;;;360.38;344.77;;;12.80;92.10;;;;;;5100910;28;20055;-71
2023/08/02 00:21:38;;;;;;;368.73;353.50;;;12.80;92.00;;;;;;5105601;28;20035;-71
2023/08/02 00:24:04;;;;;;;346.00;332.40;;;12.70;92.10;;;;;;5109429;28;20019;-70
2023/08/02 00:26:30;;;;;;;363.27;348.65;;;12.80;92.50;;;;;;5101563;28;20036;-71
2023/08/02 00:28:55;;;;;;;370.27;355.73;;;12.70;92.40;;;;;;5111074;28;20023;-71
2023/08/02 00:31:21;;;;;;;372.23;357.40;;;12.60;92.50;;;;;;5092050;28;20500;-71
2023/08/02 00:33:47;;;;;;;354.10;340.13;;;12.60;92.50;;;;;;5109512;28;20023;-71
2023/08/02 00:36:12;;;;;;;347.95;334.20;;;12.60;92.70;;;;;;5108801;27;20076;-71
2023/08/02 00:38:39;;;;;;;335.67;322.55;;;12.60;92.80;;;;;;5109769;28;20032;-70
2023/08/02 00:41:05;;;;;;;339.38;325.55;;;12.50;92.90;;;;;;5090000;28;20106;-71
2023/08/02 00:43:45;;;;;;;341.30;328.33;;;12.50;93.00;;;;;;5108870;28;20035;-72
2023/08/02 00:46:13;;;;;;;315.67;303.52;;;12.50;93.20;;;;;;5107289;28;20024;-71
2023/08/02 00:48:39;;;;;;;319.35;306.45;;;12.50;93.10;;;;;;5110730;28;20034;-71
2023/08/02 00:51:08;;;;;;;331.00;318.17;;;12.40;93.10;;;;;;5110848;27;20103;-71
2023/08/02 00:53:34;;;;;;;289.02;277.63;;;12.40;93.20;;;;;;5109336;28;20564;-71
2023/08/02 00:56:00;;;;;;;265.50;255.50;;;12.40;93.40;;;;;;5110060;28;20057;-72
2023/08/02 00:58:26;;;;;;;292.70;281.73;;;12.30;93.50;;;;;;5106361;28;20035;-72
2023/08/02 01:00:52;;;;;;;267.45;257.58;;;12.30;93.60;;;;;;5109131;28;20432;-71
2023/08/02 01:03:19;;;;;;;265.63;255.65;;;12.20;93.60;;;;;;5108014;28;20035;-71
2023/08/02 01:05:51;;;;;;;276.52;266.27;;;12.20;93.60;;;;;;5112509;27;20489;-71
2023/08/02 01:08:28;;;;;;;235.10;226.40;;;12.20;93.80;;;;;;5105608;28;20393;-72
2023/08/02 01:11:22;;;;;;;222.57;214.20;;;12.10;93.90;;;;;;5106209;27;20023;-71
2023/08/02 01:13:50;;;;;;;234.65;225.75;;;12.10;93.90;;;;;;5100900;28;20035;-72
2023/08/02 01:16:17;;;;;;;255.82;246.13;;;12.10;93.80;;;;;;5105699;28;20466;-71
2023/08/02 01:18:43;;;;;;;233.25;224.63;;;12.00;93.80;;;;;;5105013;28;20076;-71
2023/08/02 01:21:09;;;;;;;263.27;253.18;;;12.00;94.00;;;;;;5107532;28;20036;-71
2023/08/02 01:23:34;;;;;;;243.98;235.10;;;12.10;93.90;;;;;;5105158;28;20174;-72
2023/08/02 01:26:02;;;;;;;246.80;237.45;;;12.10;94.00;;;;;;5107755;28;20031;-71
2023/08/02 01:28:35;;;;;;;239.20;230.43;;;12.00;93.80;;;;;;5107005;28;20497;-71
2023/08/02 01:31:01;;;;;;;239.77;230.63;;;11.90;94.00;;;;;;5104527;28;20067;-71
2023/08/02 01:33:28;;;;;;;236.20;227.40;;;11.90;94.20;;;;;;5100149;28;20512;-72
2023/08/02 01:35:53;;;;;;;249.70;239.80;;;11.90;94.10;;;;;;5109568;27;20024;-72
2023/08/02 01:38:19;;;;;;;252.68;242.63;;;11.90;94.10;;;;;;5109181;28;20336;-71
2023/08/02 01:40:45;;;;;;;259.35;249.27;;;11.90;94.00;;;;;;5106834;28;20108;-71
2023/08/02 01:43:11;;;;;;;246.80;237.77;;;11.80;94.00;;;;;;5107276;28;20532;-72
2023/08/02 01:45:36;;;;;;;268.80;258.02;;;11.80;94.10;;;;;;5108610;28;20043;-71
2023/08/02 01:48:02;;;;;;;243.57;234.30;;;11.80;94.00;;;;;;5103797;28;20058;-71
2023/08/02 01:50:28;;;;;;;252.10;241.88;;;11.80;94.00;;;;;;5091263;28;20110;-72
2023/08/02 01:52:53;;;;;;;240.52;231.27;;;11.70;94.20;;;;;;5107819;28;20097;-70
2023/08/02 01:55:19;;;;;;;247.32;237.82;;;11.70;94.60;;;;;;5106555;28;20039;-71
2023/08/02 01:57:45;;;;;;;236.45;227.70;;;11.70;94.30;;;;;;5105305;28;20074;-71
2023/08/02 02:00:12;;;;;;;238.70;229.65;;;11.70;94.30;;;;;;5106783;28;20156;-72
2023/08/02 02:02:38;;;;;;;221.93;213.57;;;11.70;94.40;;;;;;5105218;28;20024;-72
2023/08/02 02:05:04;;;;;;;224.52;215.80;;;11.70;94.40;;;;;;5108305;28;20034;-72
2023/08/02 02:07:29;;;;;;;218.52;209.73;;;11.50;94.30;;;;;;5086062;28;20405;-71
2023/08/02 02:09:55;;;;;;;214.02;205.45;;;11.50;94.40;;;;;;5087171;28;20031;-71
2023/08/02 02:12:21;;;;;;;239.27;229.95;;;11.60;94.80;;;;;;5105350;28;20233;-71
2023/08/02 02:14:46;;;;;;;221.20;212.13;;;11.70;94.80;;;;;;5105607;28;20036;-71
2023/08/02 02:17:12;;;;;;;222.68;213.90;;;11.80;94.80;;;;;;5106243;28;20036;-70
2023/08/02 02:19:37;;;;;;;223.13;214.35;;;11.90;94.50;;;;;;5105394;27;20035;-71
2023/08/02 02:22:03;;;;;;;196.13;188.38;;;11.90;94.50;;;;;;5088974;28;20677;-71
2023/08/02 02:24:29;;;;;;;213.35;204.90;;;11.80;94.20;;;;;;5089072;28;20113;-71
2023/08/02 02:26:54;;;;;;;213.48;204.48;;;11.80;94.30;;;;;;5107531;28;20028;-71
2023/08/02 02:29:20;;;;;;;224.68;215.60;;;11.70;94.40;;;;;;5107849;28;20408;-71
2023/08/02 02:31:46;;;;;;;240.45;230.93;;;11.70;94.60;;;;;;5101454;28;20504;-71
2023/08/02 02:34:11;;;;;;;214.02;205.07;;;11.80;94.90;;;;;;5101417;28;20537;-71
2023/08/02 02:36:38;;;;;;;225.63;216.55;;;11.80;94.60;;;;;;5107242;27;20042;-71
2023/08/02 02:39:05;;;;;;;198.15;190.05;;;11.70;94.60;;;;;;5106399;28;20032;-71
2023/08/02 02:41:30;;;;;;;220.38;211.40;;;11.70;94.50;;;;;;5102364;28;20494;-71
2023/08/02 02:43:56;;;;;;;203.88;195.52;;;11.70;94.40;;;;;;5103036;28;20040;-71
2023/08/02 02:46:22;;;;;;;196.82;188.95;;;11.70;94.50;;;;;;5102710;28;20038;-71
2023/08/02 02:48:47;;;;;;;200.52;192.25;;;11.60;94.50;;;;;;5108985;27;20117;-71
2023/08/02 02:51:13;;;;;;;188.07;179.95;;;11.70;94.60;;;;;;5105492;28;20482;-71
2023/08/02 02:53:39;;;;;;;218.93;209.95;;;11.70;94.50;;;;;;5086817;28;20503;-71
2023/08/02 02:56:04;;;;;;;194.20;186.27;;;11.70;94.50;;;;;;5100870;28;20059;-71
2023/08/02 02:58:30;;;;;;;204.27;196.18;;;11.70;94.30;;;;;;5106987;28;20040;-72
2023/08/02 03:00:56;;;;;;;192.02;184.38;;;11.70;94.40;;;;;;5109321;28;20393;-71
2023/08/02 03:03:22;;;;;;;187.63;180.07;;;11.80;94.50;;;;;;5109929;27;20555;-72
2023/08/02 03:05:48;;;;;;;198.07;190.20;;;11.80;94.50;;;;;;5088358;28;20027;-71
2023/08/02 03:08:13;;;;;;;199.52;191.57;;;11.80;94.30;;;;;;5105012;28;20043;-72
2023/08/02 03:10:39;;;;;;;218.45;209.18;;;11.80;94.20;;;;;;5107286;28;20101;-71
2023/08/02 03:13:04;;;;;;;190.18;182.50;;;11.80;94.30;;;;;;5089028;28;20077;-71
2023/08/02 03:15:30;;;;;;;206.65;198.45;;;11.80;94.20;;;;;;5104537;28;20128;-71
2023/08/02 03:17:56;;;;;;;196.27;187.90;;;11.80;94.30;;;;;;5107450;28;20043;-71
2023/08/02 03:20:21;;;;;;;203.98;195.52;;;11.90;94.30;;;;;;5104801;28;20055;-72
2023/08/02 03:22:47;;;;;;;204.45;196.32;;;12.00;94.20;;;;;;5101943;28;20424;-71
2023/08/02 03:25:12;;;;;;;215.52;206.75;;;12.00;94.10;;;;;;5105910;28;20031;-71
2023/08/02 03:27:39;;;;;;;214.32;205.43;;;12.10;94.00;;;;;;5104329;28;20094;-72
2023/08/02 03:30:05;;;;;;;200.80;192.05;;;12.20;93.90;;;;;;5102998;28;20035;-72
2023/08/02 03:32:31;;;;;;;196.00;187.65;;;12.30;93.70;;;;;;5089138;28;20044;-72
2023/08/02 03:34:57;;;;;;;189.30;181.68;;;12.30;93.90;;;;;;5105059;28;20429;-71
2023/08/02 03:37:23;;;;;;;241.85;232.18;;;12.40;93.80;;;;;;5105420;28;20081;-72
2023/08/02 03:39:48;;;;;;;221.13;211.73;;;12.50;93.40;;;;;;5086043;28;20027;-71
2023/08/02 03:42:14;;;;;;;238.55;228.98;;;12.50;93.70;;;;;;5107488;28;20115;-72
2023/08/02 03:44:39;;;;;;;278.95;267.38;;;12.60;93.50;;;;;;5106694;28;20036;-71
2023/08/02 03:47:06;;;;;;;294.52;282.05;;;12.60;93.20;;;;;;5105264;28;20442;-71
2023/08/02 03:49:31;;;;;;;335.80;322.05;;;12.70;93.10;;;;;;5102335;28;20656;-71
2023/08/02 03:51:57;;;;;;;320.92;307.25;;;12.70;93.10;;;;;;5105928;28;20142;-71
2023/08/02 03:54:23;;;;;;;329.83;316.70;;;12.70;93.00;;;;;;5107054;28;20145;-71
2023/08/02 03:56:48;;;;;;;321.48;308.55;;;12.70;93.00;;;;;;5105484;28;20113;-71
2023/08/02 03:59:14;;;;;;;324.75;311.15;;;12.80;92.90;;;;;;5105061;28;20027;-72
2023/08/02 04:01:39;;;;;;;339.30;325.20;;;12.80;92.80;;;;;;5106383;28;20035;-72
2023/08/02 04:04:05;;;;;;;334.25;320.52;;;12.90;92.80;;;;;;5103394;28;20027;-72
2023/08/02 04:06:31;;;;;;;317.95;305.08;;;13.00;92.70;;;;;;5105490;28;20028;-71
2023/08/02 04:08:56;;;;;;;332.15;317.77;;;13.00;92.30;;;;;;5103075;28;20024;-70
2023/08/02 04:11:22;;;;;;;322.38;309.30;;;12.90;92.40;;;;;;5086201;28;20085;-71
2023/08/02 04:13:50;;;;;;;322.58;308.77;;;12.90;92.60;;;;;;5107329;28;20059;-72
2023/08/02 04:16:15;;;;;;;315.70;301.95;;;12.90;92.40;;;;;;5105767;28;20032;-72
2023/08/02 04:18:42;;;;;;;314.40;300.42;;;12.90;92.30;;;;;;5108482;28;20714;-71
2023/08/02 04:21:08;;;;;;;324.42;310.27;;;13.00;92.40;;;;;;5111432;28;20067;-70
2023/08/02 04:23:33;;;;;;;347.33;331.60;;;13.00;92.40;;;;;;5110556;28;20055;-71
2023/08/02 04:25:59;;;;;;;337.30;322.60;;;13.20;92.50;;;;;;5107642;28;20038;-72
2023/08/02 04:28:24;;;;;;;317.90;304.25;;;13.10;92.50;;;;;;5109424;28;20120;-72
2023/08/02 04:30:51;;;;;;;332.67;317.80;;;13.10;92.20;;;;;;5092124;28;20400;-71
2023/08/02 04:33:17;;;;;;;338.10;322.70;;;13.20;92.40;;;;;;5108515;28;20031;-71
2023/08/02 04:35:43;;;;;;;340.70;325.52;;;13.10;92.50;;;;;;5105842;28;20039;-72
2023/08/02 04:38:09;;;;;;;331.40;316.63;;;13.30;92.60;;;;;;5108366;28;20032;-73
2023/08/02 04:40:40;;;;;;;346.65;331.40;;;13.40;92.50;;;;;;5102390;28;20035;-72
2023/08/02 04:43:06;;;;;;;330.83;316.20;;;13.40;92.40;;;;;;5106713;28;20112;-71
2023/08/02 04:45:31;;;;;;;354.48;338.90;;;13.50;92.10;;;;;;5095997;28;20067;-71
2023/08/02 04:47:57;;;;;;;327.08;313.15;;;13.50;92.30;;;;;;5119672;28;20039;-72
2023/08/02 04:50:23;;;;;;;363.10;347.98;;;13.40;92.60;;;;;;5110442;28;20031;-71
2023/08/02 04:52:48;;;;;;;377.48;361.20;;;13.50;92.60;;;;;;5104901;28;20030;-72
2023/08/02 04:55:15;;;;;;;354.60;339.27;;;13.40;92.70;;;;;;5111006;28;20366;-72
2023/08/02 04:57:41;;;;;;;317.05;303.73;;;13.50;93.00;;;;;;5107846;28;20142;-72
2023/08/02 05:00:08;;;;;;;292.80;280.23;;;13.40;93.60;;;;;;5111357;27;20051;-71
2023/08/02 05:02:36;;;;;;;315.13;302.25;;;13.50;93.60;;;;;;5108011;28;20085;-72
2023/08/02 05:05:02;;;;;;;299.00;285.98;;;13.50;93.80;;;;;;5105183;28;20047;-72
2023/08/02 05:07:32;;;;;;;350.23;334.83;;;13.40;96.00;;;;;;5106382;28;20028;-72
2023/08/02 05:09:59;;;;;;;355.00;339.05;;;13.20;96.60;;;;;;5107350;28;20053;-77
2023/08/02 05:12:25;;;;;;;332.73;317.85;;;13.20;97.50;;;;;;5085155;28;20028;-71
2023/08/02 05:14:50;;;;;;;327.73;313.52;;;13.30;98.10;;;;;;5107757;27;20034;-71
2023/08/02 05:17:16;;;;;;;336.00;321.50;;;13.30;98.30;;;;;;5105898;28;20035;-71
2023/08/02 05:19:41;;;;;;;336.27;321.55;;;13.30;98.40;;;;;;5101444;28;20043;-71
2023/08/02 05:22:07;;;;;;;306.38;292.55;;;13.20;98.30;;;;;;5106870;28;20046;-71
2023/08/02 05:24:33;;;;;;;228.43;218.52;;;13.30;98.60;;;;;;5103829;27;20114;-72
2023/08/02 05:26:58;;;;;;;221.38;211.60;;;13.30;98.90;;;;;;5103852;28;20040;-72
2023/08/02 05:29:24;;;;;;;239.30;229.18;;;13.40;99.20;;;;;;5086255;28;20039;-71
2023/08/02 05:31:49;;;;;;;202.20;193.25;;;13.50;99.20;;;;;;5090918;28;20036;-72
2023/08/02 05:34:15;;;;;;;245.75;235.68;;;13.60;99.50;;;;;;5106147;28;20027;-73
2023/08/02 05:36:41;;;;;;;220.85;211.93;;;13.50;99.20;;;;;;5091472;28;20043;-81
2023/08/02 05:39:06;;;;;;;231.02;221.23;;;13.60;99.40;;;;;;5084941;28;20678;-74
2023/08/02 05:41:32;;;;;;;283.98;272.20;;;13.70;99.60;;;;;;5102650;28;20040;-74
2023/08/02 05:43:57;;;;;;;297.42;285.08;;;13.70;99.40;;;;;;5091221;28;20066;-74
2023/08/02 05:46:23;;;;;;;370.98;354.77;;;13.70;99.20;;;;;;5107729;28;20023;-75
2023/08/02 05:48:49;;;;;;;309.20;295.80;;;13.60;99.20;;;;;;5108252;28;20031;-75
2023/08/02 05:51:14;;;;;;;250.50;240.15;;;13.60;99.30;;;;;;5106160;28;20051;-74
2023/08/02 05:53:41;;;;;;;237.13;227.52;;;13.60;99.30;;;;;;5106923;27;20032;-79
2023/08/02 05:56:07;;;;;;;237.15;227.55;;;13.70;99.70;;;;;;5109526;27;20508;-76
2023/08/02 05:58:33;;;;;;;232.80;223.55;;;13.70;99.70;;;;;;5110757;27;20046;-83
2023/08/02 06:00:58;;;;;;;272.15;260.60;;;13.60;99.40;;;;;;5087484;28;20035;-78
2023/08/02 06:03:24;;;;;;;251.07;240.85;;;13.60;99.60;;;;;;5102173;28;20117;-81
2023/08/02 06:05:50;;;;;;;250.40;240.68;;;13.60;99.50;;;;;;5083411;28;20044;-80
2023/08/02 06:08:15;;;;;;;237.40;228.02;;;13.60;99.50;;;;;;5105789;28;20027;-81
2023/08/02 06:10:41;;;;;;;255.52;245.25;;;13.50;99.70;;;;;;5101822;28;20036;-79
2023/08/02 06:13:07;;;;;;;207.50;199.50;;;13.60;99.80;;;;;;5084852;28;20055;-81
2023/08/02 06:15:33;;;;;;;219.48;210.75;;;13.70;99.90;;;;;;5101834;28;20402;-83
2023/08/02 06:17:59;;;;;;;271.65;261.27;;;13.80;99.90;;;;;;5086414;28;20135;-82
2023/08/02 06:20:26;;;;;;;219.38;210.55;;;13.80;99.80;;;;;;5101062;28;20551;-79
2023/08/02 06:22:51;;;;;;;203.10;195.20;;;13.80;99.90;;;;;;5108920;28;20036;-79
2023/08/02 06:25:17;;;;;;;193.23;185.52;;;14.00;99.90;;;;;;5106101;28;20405;-80
2023/08/02 06:27:43;;;;;;;201.43;193.30;;;14.10;99.90;;;;;;5090998;28;20066;-77
2023/08/02 06:30:09;;;;;;;184.65;177.27;;;14.00;99.90;;;;;;5090646;28;20057;-80
2023/08/02 06:32:34;;;;;;;344.95;330.27;;;14.10;99.90;;;;;;5105238;28;20020;-83
2023/08/02 06:35:00;;;;;;;216.68;208.30;;;13.90;99.60;;;;;;5108332;28;20031;-81
2023/08/02 06:37:26;;;;;;;222.55;214.07;;;14.00;99.90;;;;;;5105805;28;20393;-79
2023/08/02 06:39:51;;;;;;;222.63;213.93;;;14.00;99.80;;;;;;5089662;28;20093;-78
2023/08/02 06:42:17;;;;;;;145.82;139.93;;;14.00;99.30;;;;;;5109933;27;20039;-80
2023/08/02 06:44:42;;;;;;;229.43;220.55;;;14.00;98.50;;;;;;5105850;28;20058;-81
2023/08/02 06:47:10;;;;;;;209.88;201.93;;;14.00;98.90;;;;;;5107205;28;20032;-82
2023/08/02 06:49:36;;;;;;;235.68;226.30;;;14.10;99.60;;;;;;5104809;28;20068;-82
2023/08/02 06:52:02;;;;;;;226.38;217.82;;;14.20;99.30;;;;;;5109086;28;20024;-83
2023/08/02 06:54:27;;;;;;;266.77;256.77;;;14.20;98.90;;;;;;5108074;28;20030;-80
2023/08/02 06:56:54;;;;;;;189.38;182.23;;;14.20;98.70;;;;;;5085412;28;20044;-80
2023/08/02 06:59:20;;;;;;;372.52;356.10;;;14.20;98.60;;;;;;5104235;27;20032;-81
2023/08/02 07:01:46;;;;;;;191.23;183.80;;;14.10;98.10;;;;;;5103837;28;20402;-80
2023/08/02 07:04:12;;;;;;;200.85;193.10;;;14.20;98.80;;;;;;5086741;28;20035;-80
2023/08/02 07:06:39;;;;;;;224.95;216.00;;;14.20;98.90;;;;;;5102121;28;20023;-81
2023/08/02 07:09:04;;;;;;;231.45;221.90;;;14.30;99.00;;;;;;5087190;28;20450;-80
2023/08/02 07:11:30;;;;;;;190.45;182.77;;;14.40;99.40;;;;;;5086694;28;20051;-79
2023/08/02 07:13:56;;;;;;;187.43;180.07;;;14.60;99.20;;;;;;5099690;28;20032;-83
2023/08/02 07:16:22;;;;;;;275.20;264.15;;;14.80;98.70;;;;;;5085138;28;20040;-82
2023/08/02 07:18:48;;;;;;;224.85;215.73;;;14.80;99.20;;;;;;5081773;28;20486;-80
2023/08/02 07:21:13;;;;;;;226.43;217.68;;;14.90;99.40;;;;;;5084674;28;20033;-79
2023/08/02 07:23:39;;;;;;;303.65;290.88;;;14.70;98.30;;;;;;5084494;28;20066;-79
2023/08/02 07:26:05;;;;;;;288.23;277.20;;;14.60;98.50;;;;;;5088817;28;20562;-83
2023/08/02 07:28:31;;;;;;;252.52;242.73;;;14.70;98.80;;;;;;5084964;28;20557;-79
2023/08/02 07:31:12;;;;;;;277.98;267.20;;;14.80;99.10;;;;;;5107123;28;20486;-84
2023/08/02 07:33:38;;;;;;;;;;;14.80;98.70;;;;;;5104982;28;20515;-80
2023/08/02 07:36:04;;;;;;;229.55;220.73;;;14.90;99.10;;;;;;5106769;28;19916;-82
2023/08/02 07:38:30;;;;;;;240.52;231.05;;;15.00;99.10;;;;;;5089907;28;20028;-82
2023/08/02 07:40:56;;;;;;;149.02;143.25;;;14.90;99.00;;;;;;5108456;28;20114;-80
2023/08/02 07:43:21;;;;;;;277.20;265.45;;;15.00;98.70;;;;;;5108639;28;20143;-81
2023/08/02 07:45:47;;;;;;;256.48;245.65;;;14.80;99.00;;;;;;5084733;28;20036;-80
2023/08/02 07:48:14;;;;;;;205.32;197.18;;;14.80;98.40;;;;;;5107422;28;20042;-83
2023/08/02 07:50:39;;;;;;;401.10;383.25;;;14.80;99.50;;;;;;5103893;28;20485;-83
2023/08/02 07:53:06;;;;;;;187.43;180.05;;;14.60;98.60;;;;;;5095214;27;20030;-83
2023/08/02 07:55:32;;;;;;;213.48;205.30;;;14.60;99.10;;;;;;5106967;27;20032;-83
2023/08/02 07:57:57;;;;;;;232.18;222.75;;;14.50;99.50;;;;;;5094899;28;20027;-83
2023/08/02 08:00:25;;;;;;;178.98;171.85;;;14.40;99.50;;;;;;5084336;28;20077;-80
2023/08/02 08:02:51;;;;;;;246.55;236.35;;;14.40;99.80;;;;;;5106901;28;20032;-79
2023/08/02 08:05:17;;;;;;;193.27;186.00;;;14.40;99.40;;;;;;5107424;27;20374;-83
2023/08/02 08:07:43;;;;;;;231.20;220.73;;;14.40;99.90;;;;;;5112034;28;20031;-83
2023/08/02 08:10:09;;;;;;;270.58;257.42;;;14.40;99.90;;;;;;5108542;28;20020;-82
2023/08/02 08:12:36;;;;;;;189.65;182.18;;;14.30;99.80;;;;;;5109479;28;20035;-83
2023/08/02 08:15:03;;;;;;;174.48;167.80;;;14.30;99.90;;;;;;5105794;27;20054;-79
2023/08/02 08:17:28;;;;;;;172.57;165.95;;;14.20;99.90;;;;;;5088897;28;20036;-83
2023/08/02 08:19:54;;;;;;;135.90;130.48;;;14.40;99.90;;;;;;5108671;28;20055;-82
2023/08/02 08:22:21;;;;;;;175.43;168.77;;;14.70;99.90;;;;;;5112701;28;20060;-81
2023/08/02 08:24:48;;;;;;;190.48;183.23;;;15.00;99.90;;;;;;5106232;28;20076;-79
2023/08/02 08:27:14;;;;;;;180.15;173.10;;;15.00;99.90;;;;;;5107705;27;20035;-81
2023/08/02 08:29:39;;;;;;;126.28;121.25;;;15.10;99.90;;;;;;5090783;28;20522;-80
2023/08/02 08:32:05;;;;;;;199.02;191.68;;;15.20;99.90;;;;;;5087770;28;20034;-82
2023/08/02 08:34:31;;;;;;;161.95;155.80;;;15.20;99.70;;;;;;5089954;28;20051;-80
2023/08/02 08:36:57;;;;;;;319.55;302.35;;;15.30;99.60;;;;;;5109073;28;20028;-84
2023/08/02 08:39:22;;;;;;;215.45;206.85;;;15.20;99.20;;;;;;5107505;28;20489;-81
2023/08/02 08:41:48;;;;;;;187.13;179.93;;;15.20;99.50;;;;;;5107328;27;20113;-78
2023/08/02 08:44:14;;;;;;;198.70;190.95;;;15.30;99.50;;;;;;5107699;28;20047;-79
2023/08/02 08:46:40;;;;;;;240.40;230.75;;;15.30;98.60;;;;;;5091298;28;20442;-82
2023/08/02 08:49:07;;;;;;;266.63;255.80;;;15.10;98.80;;;;;;5090958;28;20074;-80
2023/08/02 08:51:34;;;;;;;324.90;310.77;;;15.20;99.00;;;;;;5088251;28;20044;-78
2023/08/02 08:54:08;;;;;;;276.55;265.40;;;15.20;98.20;;;;;;5104670;28;20043;-81
2023/08/02 08:56:38;;;;;;;399.70;377.83;;;15.30;99.30;;;;;;5089754;28;20168;-80
2023/08/02 08:59:06;;;;;;;343.13;328.45;;;15.40;98.00;;;;;;5104077;28;20039;-81
2023/08/02 09:01:32;;;;;;;219.85;211.02;;;15.50;97.80;;;;;;5100771;28;20031;-82
2023/08/02 09:03:58;;;;;;;331.05;317.63;;;15.60;96.70;;;;;;5105626;28;20020;-82
2023/08/02 09:06:25;;;;;;;321.85;309.10;;;15.80;97.80;;;;;;5086158;28;20186;-81
2023/08/02 09:08:51;;;;;;;331.77;319.00;;;16.00;97.20;;;;;;5087787;28;20040;-79
2023/08/02 09:11:16;;;;;;;324.50;311.30;;;16.00;97.20;;;;;;5092701;28;20545;-79
2023/08/02 09:13:42;;;;;;;468.55;447.95;;;16.30;97.70;;;;;;5088911;28;20036;-80
2023/08/02 09:16:12;;;;;;;474.58;451.05;;;16.20;95.30;;;;;;5090879;28;20031;-80
2023/08/02 09:18:42;;;;;;;351.08;336.60;;;16.30;95.70;;;;;;5106644;28;20047;-80
2023/08/02 09:21:13;;;;;;;351.60;335.33;;;16.70;96.00;;;;;;5107120;28;20409;-78
2023/08/02 09:23:38;;;;;;;490.42;468.73;;;16.90;92.20;;;;;;5104966;28;20089;-79
2023/08/02 09:26:13;;;;;;;554.33;526.88;;;17.20;94.60;;;;;;5108785;27;20535;-81
2023/08/02 09:28:39;;;;;;;496.35;472.00;;;17.30;92.00;;;;;;5088495;28;20042;-79
2023/08/02 09:31:15;;;;;;;597.60;567.38;;;17.40;90.80;;;;;;5109317;28;20023;-78
2023/08/02 09:33:51;;;;;;;461.48;437.40;;;17.20;90.20;;;;;;5114678;28;20028;-78
2023/08/02 09:36:28;;;;;;;1295.43;779.47;;;17.30;87.90;;;;;;5114159;28;20023;-78
2023/08/02 09:39:10;;;;;;;610.22;579.03;;;17.40;86.30;;;;;;5107797;27;20102;-79
2023/08/02 09:41:35;;;;;;;1999.90;999.90;;;17.90;88.20;;;;;;5106501;28;20035;-78
2023/08/02 09:44:01;;;;;;;1999.90;999.90;;;18.30;86.90;;;;;;5087533;28;20504;-78
2023/08/02 09:46:29;;;;;;;1999.90;999.90;;;18.20;82.50;;;;;;5101688;28;20027;-79
2023/08/02 09:48:56;;;;;;;1999.90;999.90;;;18.20;84.60;;;;;;5102827;28;20036;-77
2023/08/02 09:51:36;;;;;;;1999.90;999.90;;;18.50;84.10;;;;;;5101776;28;20043;-75
2023/08/02 09:54:02;;;;;;;1999.90;999.90;;;19.00;84.30;;;;;;5099039;28;20024;-76
2023/08/02 09:56:27;;;;;;;1999.90;999.90;;;18.80;80.50;;;;;;5105300;28;20051;-76
2023/08/02 09:58:55;;;;;;;1999.90;999.90;;;19.00;79.90;;;;;;5073067;28;20143;-76
2023/08/02 10:01:25;;;;;;;1999.90;999.90;;;18.90;80.00;;;;;;5102025;28;20064;-75
2023/08/02 10:03:57;;;;;;;1999.90;999.90;;;19.10;79.70;;;;;;5108506;28;20032;-78
2023/08/02 10:06:33;;;;;;;1999.90;999.90;;;18.70;78.30;;;;;;5110446;28;20508;-77
2023/08/02 10:09:07;;;;;;;1999.90;999.90;;;18.50;79.20;;;;;;5107851;28;20023;-77
2023/08/02 10:11:43;;;;;;;1999.90;999.90;;;19.20;80.00;;;;;;5109810;27;20042;-76
2023/08/02 10:14:09;;;;;;;1564.72;811.20;;;19.60;74.90;;;;;;5099440;28;20428;-78
2023/08/02 10:16:37;;;;;;;1999.90;999.90;;;19.60;74.60;;;;;;5103877;28;20043;-76
2023/08/02 10:19:03;;;;;;;748.30;484.90;;;19.20;76.20;;;;;;5089863;28;20031;-76
2023/08/02 10:21:33;;;;;;;1180.28;670.60;;;19.20;76.70;;;;;;5104048;28;20034;-78
2023/08/02 10:24:00;;;;;;;1999.90;999.90;;;19.20;75.80;;;;;;5086854;28;20031;-77
2023/08/02 10:26:29;;;;;;;1999.90;999.90;;;19.30;77.00;;;;;;5109263;27;20084;-76
2023/08/02 10:28:59;;;;;;;1999.90;999.90;;;19.60;75.00;;;;;;5084920;28;20032;-76
2023/08/02 10:31:26;;;;;;;1999.90;999.90;;;20.20;75.90;;;;;;5104209;28;20441;-75
2023/08/02 10:33:51;;;;;;;1226.38;713.90;;;21.00;71.40;;;;;;5104504;28;20053;-76
2023/08/02 10:36:17;;;;;;;1999.90;999.90;;;20.50;71.00;;;;;;5100997;28;20028;-75
2023/08/02 10:38:43;;;;;;;1999.90;999.90;;;20.20;76.70;;;;;;5107658;28;20577;-75
2023/08/02 10:41:12;;;;;;;1999.90;999.90;;;20.60;71.50;;;;;;5106417;28;20042;-75
2023/08/02 10:43:53;;;;;;;1999.90;999.90;;;21.00;69.70;;;;;;5108180;28;20516;-75
2023/08/02 10:46:29;;;;;;;1999.90;999.90;;;21.50;70.30;;;;;;5103945;28;20080;-75
2023/08/02 10:49:15;;;;;;;1999.90;999.90;;;21.80;71.20;;;;;;5110190;28;20043;-75
2023/08/02 10:51:42;;;;;;;473.67;453.15;;;21.90;68.00;;;;;;5111736;28;20070;-75
2023/08/02 10:54:19;;;;;;;611.03;580.40;;;21.70;66.80;;;;;;5107335;28;20020;-76
2023/08/02 10:56:51;;;;;;;520.58;495.92;;;22.00;68.90;;;;;;5086385;28;20039;-75
2023/08/02 10:59:18;;;;;;;1999.90;999.90;;;21.70;66.70;;;;;;5104039;28;20027;-75
2023/08/02 11:02:01;;;;;;;609.00;578.47;;;21.90;67.00;;;;;;5104022;28;20063;-75
2023/08/02 11:04:29;;;;;;;536.67;512.00;;;22.40;66.20;;;;;;5098237;28;20080;-76
2023/08/02 11:06:54;;;;;;;509.13;485.77;;;22.30;66.60;;;;;;5085803;28;20032;-80
2023/08/02 11:09:30;;;;;;;546.17;519.22;;;22.70;67.00;;;;;;5073285;28;20106;-78
2023/08/02 11:11:56;;;;;;;336.73;323.38;;;22.70;65.60;;;;;;5087107;28;20110;-78
2023/08/02 11:14:26;;;;;;;458.20;434.80;;;23.10;63.40;;;;;;5090820;28;20747;-79
2023/08/02 11:16:54;;;;;;;401.17;383.95;;;23.50;63.70;;;;;;5090477;28;20036;-78
2023/08/02 11:19:24;;;;;;;252.10;242.68;;;23.80;62.20;;;;;;5106462;28;20030;-72
2023/08/02 11:21:54;;;;;;;186.15;179.38;;;23.50;60.40;;;;;;5107385;28;20156;-73
2023/08/02 11:24:19;;;;;;;;;;;23.60;62.20;;;;;;5109015;27;20055;-74
2023/08/02 11:26:56;;;;;;;146.98;140.98;;;24.10;60.20;;;;;;5088864;28;20341;-74
2023/08/02 11:29:22;;;;;;;145.13;139.48;;;24.20;60.00;;;;;;5105382;28;20122;-74
2023/08/02 11:31:48;;;;;;;148.88;143.18;;;24.40;59.80;;;;;;5085550;28;20405;-73
2023/08/02 11:34:18;;;;;;;218.23;209.60;;;24.60;56.20;;;;;;5104926;28;20072;-73
2023/08/02 11:36:50;;;;;;;234.38;223.10;;;25.10;58.70;;;;;;5102406;28;20036;-73
2023/08/02 11:39:20;;;;;;;288.50;269.67;;;24.80;56.30;;;;;;5087102;28;20036;-74
2023/08/02 11:42:00;;;;;;;217.85;209.73;;;24.30;55.80;;;;;;5104861;28;20027;-74
2023/08/02 11:44:26;;;;;;;334.52;320.45;;;24.90;58.40;;;;;;5104040;28;20042;-74
2023/08/02 11:46:56;;;;;;;343.08;329.58;;;25.90;53.70;;;;;;5102764;28;20409;-74
2023/08/02 11:49:23;;;;;;;1999.90;999.90;;;25.60;53.00;;;;;;5101584;28;20114;-75
2023/08/02 11:51:48;;;;;;;1523.95;772.83;;;25.70;51.80;;;;;;5100905;28;20042;-75
2023/08/02 11:54:15;;;;;;;1044.60;542.65;;;26.20;51.20;;;;;;5087787;28;20539;-75
2023/08/02 11:56:42;;;;;;;1999.90;999.90;;;26.40;48.90;;;;;;5100138;28;20506;-77
2023/08/02 11:59:09;;;;;;;1999.90;999.90;;;26.40;52.30;;;;;;5098464;28;20027;-77
2023/08/02 12:01:35;;;;;;;1999.90;999.90;;;27.00;48.60;;;;;;5104020;28;20031;-76
2023/08/02 12:04:05;;;;;;;1999.90;999.90;;;26.60;47.70;;;;;;5107402;28;20024;-74
2023/08/02 12:06:51;;;;;;;1999.90;999.90;;;27.10;49.30;;;;;;5101513;28;20061;-75
2023/08/02 12:09:19;;;;;;;1999.90;999.90;;;27.10;46.50;;;;;;5104720;28;20039;-74